Porto Alegre, Brazil
Current Conditions -  °F | °C
As of 6:15 AM on Sunday 26 Oct 2014 (Local Time) from SBPA Reporting Station
Broken Clouds Broken Clouds  
Wind Chill: 66°   Ceiling: 1000
Heat Index: 66°   Visibility: 5mi
Dew Point: 64°   Wind: 9mph
Humidity: 94%   Direction: 90°E
Pressure: 29.91"   Gusts: NA
Location:  30.04°S, 51.22°W
Report Text: SBPA 260815Z 09008KT 8000 BKN010 19/18 Q1013
Loading
Personal Weather Stations






























Interactive Weather Map
Tropical Storm Tracking
New forecast layout! Learn more

10-Day Weather Forecast

Advertisements
Track Severe Weather on mobile